Ships in port

Last updated: 21-08-2019 11:45

Ship name Call sign IMO Agent Date Time Berth Arrived From Purpose of call Cargo Loaded in/for Homeport ETD Date ETD Time GT Deadweight Width (BR) DR arr. Length (LOA)
ISLAND CAPTAIN 3YHO 9579482 Blue Water Shipping A/S 21-08-2019 10:30 601 DK OFFSHORE INSTALLATIONS Load Drill chemicals ÅLESUND 25-08-2019 20:22 4841 4500 20,0 6,0 93,0
SCOTIA (E 567) OZYG 9999999 Tony Divers 21-08-2019 08:15 12 OTHER DENMARK Discharge Shrimps ESBJERG 21-08-2019 19:22 69 0 5,8 2,5 17,8
IDA SARA (E 710) OYHO 9999999 Fiskeriselskabet Ida Sara E 710 ApS 21-08-2019 08:15 12 OTHER DENMARK Discharge Shrimps ESBJERG 21-08-2019 19:22 62 0 5,8 2,5 17,2
TRUD R OWZP2 8957156 Rohde Nielsen A/S 21-08-2019 07:45 90 List/Sylt Repair GRENÅ 21-08-2019 16:00 1414 1785 12,8 2,5 73,8
ROTRA VENTE PBPH 9805568 Jutlandia Terminal A/S 21-08-2019 07:35 709 Hull Discharge/load Wind mill equipment WERKENDAM 21-08-2019 22:22 6200 9100 21,4 6,6 141,6
SIF R PIVA 7424358 Rohde Nielsen A/S 21-08-2019 06:55 76 List/Sylt Crew change/Provion/Bunkers ZEIST 21-08-2019 16:00 1693 2700 13,8 3,5 80,0
ESVAGT BETA OUJM2 8817746 Esvagt A/S 21-08-2019 06:50 302 DK OFFSHORE INSTALLATIONS Crew change/Provion/Bunkers ESBJERG 25-08-2019 22:22 2360 1157 14,6 5,4 76,6
GLAREA OXQK 7041170 NCC Industry A/S 21-08-2019 02:45 717 DK AGGREGATES EXTRACTION AREAS Discharge Gravel ESBJERG 21-08-2019 08:22 1607 2266 14,1 5,5 82,0
MHO ESBJERG OXIG2 9852511 MH-O & Co A/S 20-08-2019 17:05 4 Eemshaven (NLEEM) Passenger call Passengers JUELSMINDE 21-08-2019 07:22 365 0 10,3 1,6 38,6
BOLDER OUYO2 9656993 Northern Offshore Services A/S 20-08-2019 15:30 3 DK OFFSHORE INSTALLATIONS Passenger call Passengers Fredericia 21-08-2019 07:22 118 55 7,0 2,1 20,9
ESVAGT BRAVO OZJB2 5408221 Esvagt A/S 20-08-2019 07:10 304 DK OFFSHORE INSTALLATIONS Crew change/Provion/Bunkers ESBJERG 21-08-2019 20:00 172 163 6,6 3,3 30,9
ESVAGT DON OUNO2 9198068 Esvagt A/S 19-08-2019 08:40 103 DK OFFSHORE INSTALLATIONS Crew change/Provion/Bunkers ESBJERG 21-08-2019 17:00 1863 1634 14,6 5,2 56,6
LINA OYCH2 9736054 Offshore Windservice A/S 18-08-2019 22:20 86 Helgoland I. Repair Thyboron 25-08-2019 21:22 233 65 10,8 2,4 24,8
MARMACTAN V2GS5 9369083 Juhl & Ehrhorn 18-08-2019 09:40 203 Other ports, Norway Load Wind turbines Saint John's 24-08-2019 22:02 7878 11149 18,3 7,0 145,6
ISLAND PATRIOT LMWS 9325738 Copco A/S 16-08-2019 11:30 710 DK OFFSHORE INSTALLATIONS Load Chemicals ÅLESUND 21-08-2019 18:22 5800 4843 19,2 7,0 86,2
MARGRETHE M OVOR2 9999999 KEM-Offshore ApS 13-08-2019 12:40 21 DK OFFSHORE INSTALLATIONS Passenger call Passengers ESBJERG 21-08-2019 15:22 49 0 5,0 2,0 19,8
BLUE ORCA WDG8787 9670341 Jutlandia Terminal A/S 10-08-2019 21:00 509 OTHER DENMARK Discharge/load Chemicals Galliano, LA 31-08-2019 12:22 7115 5065 18,3 5,8 94,8
TYR R OZGD2 8642713 Rohde Nielsen A/S 09-08-2019 15:00 900 Frederikshavn Repair GRENAA 31-08-2019 12:22 309 386 3,5 1,5 34,3
KAREN M OWFL2 8228830 KEM-Offshore ApS 09-08-2019 01:15 23 OTHER DENMARK Crew change/Provion/Bunkers Esbjerg 02-09-2019 12:22 108 0 6,0 2,1 26,9
HO BUGT (E 4) OU7149 9999999 Kutter Ho Bugt E 4 06-08-2019 06:20 12 OTHER DENMARK Discharge Shrimps ESBJERG 25-08-2019 19:22 19 0 5,5 2,5 16,0
BIGORANGE XVIII C6LD3 8311314 Blue Water Shipping A/S 04-08-2019 07:15 113 DK OFFSHORE INSTALLATIONS Load Drill chemicals NASSAU 30-08-2019 12:22 3719 3424 18,0 6,0 76,1
ORKAMA M OZBO2 9999999 KEM-Offshore ApS 02-08-2019 17:00 21 DK OFFSHORE INSTALLATIONS Passenger call Passengers ESBJERG 21-08-2019 07:22 74 0 4,9 2,0 22,4
STATHAV 9 FTJ1312 9999999 Nordic Marine Oil A/S 01-08-2019 00:05 14 Esbjerg Bunker another vessel KØBENHAVN 31-08-2019 23:55 19 0 4,3 1,5 12,4
CICALA MFBZ4 8891443 M/V ST. CICALA / John Cefferty 01-08-2019 00:05 88 Esbjerg Temporary laid up MANCHESTER 31-08-2019 23:55 270 0 8,5 1,5 30,7
FØNIKS SUPPORTER OUBJ2 8661020 Bunker One A/S 01-08-2019 00:05 7 Esbjerg Bunker another vessel københavn 31-08-2019 23:55 226 0 9,0 1,5 25,2
KIRSTEN GULLEV OU5826 9999999 Nordic Marine Oil A/S 01-08-2019 00:05 14 OTHER DENMARK Bunker another vessel ESBJERG 31-08-2019 23:55 21 70 4,3 1,5 14,4
SOUNDLINK OXFT2 9999999 B B Towing og Diving A/S 01-08-2019 00:05 65 Esbjerg Towing Esbjerg 31-08-2019 23:55 30 0 4,2 1,5 13,0
SVITZER HELIOS OWLX2 7321659 EM. Z. Svitzer A/S 01-08-2019 00:05 307 Esbjerg Towing ESBJERG 31-08-2019 23:55 304 650 9,8 4,7 32,9
STATHAV 22 OWGA2 9999999 Nordic Marine Oil A/S 01-08-2019 00:05 14 Esbjerg Bunker another vessel Skagen 31-08-2019 23:55 131 0 6,5 3,5 27,4
SONDERHO OYVH 8946779 Molslinjen A/S 01-08-2019 00:05 209 Nordby Havn, Fanø Passenger call Passengers ESBJERG 31-08-2019 23:55 93 30 6,0 1,5 25,0
FENJA OYIQ 9189378 Molslinjen A/S 01-08-2019 00:05 209 Nordby Havn, Fanø Passenger call Passengers - cars ESBJERG 31-08-2019 23:55 751 230 13,8 2,5 49,9
MENJA OYIU 9189380 Molslinjen A/S 01-08-2019 00:05 300 Nordby Havn, Fanø Passenger call Passengers - cars ESBJERG 31-08-2019 23:55 751 230 13,8 2,5 49,9
SIGYN OZHB2 9114361 EM. Z. Svitzer A/S 01-08-2019 00:05 306 OTHER DENMARK Towing Kalundborg 31-08-2019 23:55 485 311 10,8 5,0 33,8
TJALFE R 5BZX4 9281889 Rohde Nielsen A/S 28-07-2019 21:00 999 Grenå Dredging Limassol 31-08-2019 12:22 777 0 11,2 0,0 57,5
ESVAGT DANA OWGN2 9787467 Esvagt A/S 25-07-2019 06:00 206 DK OFFSHORE INSTALLATIONS Crew change/Provion/Bunkers Esbjerg 30-08-2019 12:22 3808 1000 15,2 5,5 89,8
KATJA (E 35) OXEL 9999999 Jan Magnussen / Kutter Katja E 35 24-07-2019 14:00 12 OTHER DENMARK Discharge Shrimps ESBJERG 25-08-2019 12:02 61 0 5,8 2,5 17,0
RUNE EGHOLM (E 426) OYCG 9999999 Fiskeriselskabet Rune Egholm E 426 22-07-2019 17:30 12 OTHER DENMARK Discharge Shrimps ESBJERG 25-08-2019 19:22 67 0 5,9 2,5 18,0
WIND PIONEER OWLA2 8660222 Ziton A/S 10-07-2019 11:00 201 Hirtshals Repair AARHUS 31-08-2019 22:22 1989 0 28,0 5,3 94,0
RAN XPKY 7043829 Niels Winther Maritime ApS 01-07-2019 00:05 84 OTHER DENMARK Temporary laid up THORSHAVN 31-08-2019 23:55 1100 1072 11,0 5,1 60,1
DANMARK OXDK 5086279 Esbjerg Shipyard 25-06-2019 08:55 85 Rønne Repair Copenhagen 05-12-2019 14:00 737 0 10,1 4,9 65,0
CONNECTOR EXPRESS OYOJ2 9244568 Niels Winther Maritime ApS 21-06-2019 12:05 107 DK OFFSHORE INSTALLATIONS Await orders FREDERICIA 31-08-2019 12:22 4030 4505 19,0 5,6 90,2
SEA COMFORT OUZK2 9674282 TP Offshore A/S 21-06-2019 11:00 5 Borkum I. Crew change/Provion/Bunkers Grenaa 31-08-2019 12:22 326 0 11,3 2,8 25,3
LYØ (MHV 904) OVLD 219000161 Lokal Støtte Element Varde 20-06-2019 00:05 307 Helgoland I. Environmental protection Esbjerg 31-08-2019 22:22 100 0 5,6 3,6 27,2
GIANT OU2465 8415768 SDK Shipping A/S 19-06-2019 00:05 84 OTHER DENMARK Temporary laid up SVENDBORG 31-08-2019 22:22 16325 0 95,6 8,2 80,8
PACIFIC OSPREY 5BUF3 9621704 Swire Blue Ocean 07-04-2019 00:40 117 Rotterdam Demobilisation Limassol 31-12-2019 15:22 24586 13155 49,0 5,5 161,3
DI-JE (E 61) OWFZ 5128062 Partsrederiet E 61 Di-Je 03-02-2019 17:30 12 OTHER DENMARK Discharge Shrimps ESBJERG 31-12-2019 19:22 48 0 6,5 2,5 20,0
HEIMDAL OXQN2 9999999 KEM-Offshore ApS 10-10-2018 14:00 21 DK OFFSHORE INSTALLATIONS Passenger call Passengers ESBJERG 31-12-2019 07:22 19 10 5,0 1,5 16,1
MADOG V4DR 6615467 Malta Towage Limited 14-09-2018 14:00 89 Esbjerg Temporary laid up BASSETERRE - ST KITTS 31-12-2019 23:55 185 0 7,2 3,7 25,7
KURBERG OW2361 8600064 Thor P/F Ltd. 16-07-2018 18:35 88 Other ports, Færø Islands Temporary laid up Torshavn 31-12-2019 23:55 488 488 8,9 3,5 38,6
TORSVIK OZ2029 7807316 Thor P/F Ltd. 13-07-2018 09:30 88 Las Palmas Temporary laid up Hosvik 31-12-2019 23:55 370 0 8,5 3,6 39,2
COLGA 9V9536 8751473 Dixstone Holding LtD 24-05-2018 06:22 78 OTHER DENMARK Repair Singapore 31-12-2019 23:59 9352 0 86,3 9,8 74,7
SALLING OUIG2 7431571 Salling Offshore-Service ApS 21-05-2018 18:55 59 OTHER DENMARK Crew change/Provion/Bunkers Esbjerg 31-12-2019 23:22 370 300 7,2 4,6 37,9
DIGI OVXM 9999999 Esbjerg Bedding ApS 31-01-2015 22:10 66 Hvide Sande Shelter LEMVIG 31-12-2019 23:59 29 0 4,2 1,0 15,5